KLEX/LEX METAR and TAF weather

Enter ICAO airport designator
Station Type Date Time Source
KLEX METAR 2021/03/08 11:54 UTC NOAA

KLEX 081154Z 16008KT 10SM CLR M02/M11 A3050 RMK AO2 SLP334 T10221106 11006 21050 51012


Station Type Date Time Source
KLEX Decoded METAR 2021/03/08 11:54 UTC NOAA

LEXINGTON BLUE GRASS AIRPORT, KY, United States (KLEX) 38-02N 084-36W 300M
Mar 08, 2021 - 06:54 AM EST / 2021.03.08 1154 UTC
Wind: from the SSE (160 degrees) at 9 MPH (8 KT):0
Visibility: 10 mile(s):0
Sky conditions: clear
Temperature: 28.0 F (-2.2 C)
Windchill: 19 F (-7 C):1
Dew Point: 12.9 F (-10.6 C)
Relative Humidity: 52%
Pressure (altimeter): 30.5 in. Hg (1032 hPa)
Pressure tendency: 0.04 inches (1.2 hPa) higher than three hours ago
ob: KLEX 081154Z 16008KT 10SM CLR M02/M11 A3050 RMK AO2 SLP334 T10221106 11006 21050 51012
cycle: 12

Station Type Date Time Source
KLEX TAF 2021/03/08 12:22 UTC NOAA

TAF KLEX 081120Z 0812/0912 16005KT P6SM SCT250
FM081500 22010KT P6SM SCT250
FM082300 19006KT P6SM SKC

Example: see airport list